sensor_id;sensor_type;location;lat;lon;timestamp;P1;durP1;ratioP1;P2;durP2;ratioP2
64011;SDS011;50211;52.768;12.124;2023-07-20T00:02:17;7.35;;;4.65;;
64011;SDS011;50211;52.768;12.124;2023-07-20T00:04:43;10.48;;;6.13;;
64011;SDS011;50211;52.768;12.124;2023-07-20T00:07:08;8.02;;;5.75;;
64011;SDS011;50211;52.768;12.124;2023-07-20T00:09:33;7.72;;;5.13;;
64011;SDS011;50211;52.768;12.124;2023-07-20T00:11:59;7.63;;;5.68;;
64011;SDS011;50211;52.768;12.124;2023-07-20T00:14:25;7.28;;;5.50;;
64011;SDS011;50211;52.768;12.124;2023-07-20T00:16:51;8.52;;;5.35;;
64011;SDS011;50211;52.768;12.124;2023-07-20T00:19:26;6.75;;;5.43;;
64011;SDS011;50211;52.768;12.124;2023-07-20T00:21:53;6.60;;;5.80;;
64011;SDS011;50211;52.768;12.124;2023-07-20T00:24:19;7.63;;;5.63;;
64011;SDS011;50211;52.768;12.124;2023-07-20T00:26:45;7.70;;;5.88;;
64011;SDS011;50211;52.768;12.124;2023-07-20T00:29:10;6.40;;;5.72;;
64011;SDS011;50211;52.768;12.124;2023-07-20T00:31:36;8.95;;;5.35;;
64011;SDS011;50211;52.768;12.124;2023-07-20T00:34:02;9.18;;;6.10;;
64011;SDS011;50211;52.768;12.124;2023-07-20T00:36:28;8.43;;;5.05;;
64011;SDS011;50211;52.768;12.124;2023-07-20T00:38:54;8.25;;;5.95;;
64011;SDS011;50211;52.768;12.124;2023-07-20T00:41:19;8.32;;;5.70;;
64011;SDS011;50211;52.768;12.124;2023-07-20T00:43:45;9.27;;;6.03;;
64011;SDS011;50211;52.768;12.124;2023-07-20T00:46:11;9.23;;;5.95;;
64011;SDS011;50211;52.768;12.124;2023-07-20T00:48:37;7.63;;;5.72;;
64011;SDS011;50211;52.768;12.124;2023-07-20T00:51:02;7.13;;;5.80;;
64011;SDS011;50211;52.768;12.124;2023-07-20T00:53:28;9.10;;;6.30;;
64011;SDS011;50211;52.768;12.124;2023-07-20T00:55:54;11.65;;;6.57;;
64011;SDS011;50211;52.768;12.124;2023-07-20T00:58:20;15.52;;;8.05;;
64011;SDS011;50211;52.768;12.124;2023-07-20T01:00:46;11.30;;;8.43;;
64011;SDS011;50211;52.768;12.124;2023-07-20T01:03:12;17.17;;;9.43;;
64011;SDS011;50211;52.768;12.124;2023-07-20T01:05:42;15.00;;;9.55;;
64011;SDS011;50211;52.768;12.124;2023-07-20T01:08:43;13.35;;;9.35;;
64011;SDS011;50211;52.768;12.124;2023-07-20T01:11:23;15.88;;;8.95;;
64011;SDS011;50211;52.768;12.124;2023-07-20T01:14:02;12.10;;;8.48;;
64011;SDS011;50211;52.768;12.124;2023-07-20T01:16:29;14.57;;;9.60;;
64011;SDS011;50211;52.768;12.124;2023-07-20T01:18:55;14.02;;;9.73;;
64011;SDS011;50211;52.768;12.124;2023-07-20T01:21:22;17.83;;;10.40;;
64011;SDS011;50211;52.768;12.124;2023-07-20T01:24:05;12.88;;;9.45;;
64011;SDS011;50211;52.768;12.124;2023-07-20T01:29:27;12.55;;;9.60;;
64011;SDS011;50211;52.768;12.124;2023-07-20T01:32:06;12.65;;;9.18;;
64011;SDS011;50211;52.768;12.124;2023-07-20T01:34:35;12.73;;;8.98;;
64011;SDS011;50211;52.768;12.124;2023-07-20T01:37:01;12.52;;;9.45;;
64011;SDS011;50211;52.768;12.124;2023-07-20T01:39:28;17.95;;;8.77;;
64011;SDS011;50211;52.768;12.124;2023-07-20T01:41:55;11.32;;;8.52;;
64011;SDS011;50211;52.768;12.124;2023-07-20T01:44:21;11.85;;;9.10;;
64011;SDS011;50211;52.768;12.124;2023-07-20T01:46:46;13.55;;;8.70;;
64011;SDS011;50211;52.768;12.124;2023-07-20T01:49:12;10.50;;;7.88;;
64011;SDS011;50211;52.768;12.124;2023-07-20T01:51:37;10.88;;;7.95;;
64011;SDS011;50211;52.768;12.124;2023-07-20T01:54:03;10.13;;;8.23;;
64011;SDS011;50211;52.768;12.124;2023-07-20T01:56:29;10.60;;;8.05;;
64011;SDS011;50211;52.768;12.124;2023-07-20T01:58:54;9.70;;;7.90;;
64011;SDS011;50211;52.768;12.124;2023-07-20T02:01:19;10.13;;;8.35;;
64011;SDS011;50211;52.768;12.124;2023-07-20T02:03:45;12.52;;;6.95;;
64011;SDS011;50211;52.768;12.124;2023-07-20T02:06:10;10.38;;;7.25;;
64011;SDS011;50211;52.768;12.124;2023-07-20T02:08:36;9.98;;;6.25;;
64011;SDS011;50211;52.768;12.124;2023-07-20T02:11:01;9.02;;;6.60;;
64011;SDS011;50211;52.768;12.124;2023-07-20T02:13:27;9.60;;;7.05;;
64011;SDS011;50211;52.768;12.124;2023-07-20T02:15:53;11.23;;;6.78;;
64011;SDS011;50211;52.768;12.124;2023-07-20T02:18:18;9.55;;;6.15;;
64011;SDS011;50211;52.768;12.124;2023-07-20T02:20:44;11.05;;;6.40;;
64011;SDS011;50211;52.768;12.124;2023-07-20T02:23:09;6.32;;;5.28;;
64011;SDS011;50211;52.768;12.124;2023-07-20T02:25:36;8.63;;;6.20;;
64011;SDS011;50211;52.768;12.124;2023-07-20T02:28:01;7.07;;;5.75;;
64011;SDS011;50211;52.768;12.124;2023-07-20T02:30:28;11.77;;;6.60;;
64011;SDS011;50211;52.768;12.124;2023-07-20T02:32:54;8.02;;;5.90;;
64011;SDS011;50211;52.768;12.124;2023-07-20T02:35:23;7.43;;;5.53;;
64011;SDS011;50211;52.768;12.124;2023-07-20T02:37:48;7.18;;;6.13;;
64011;SDS011;50211;52.768;12.124;2023-07-20T02:40:14;7.55;;;6.18;;
64011;SDS011;50211;52.768;12.124;2023-07-20T02:42:40;8.90;;;5.90;;
64011;SDS011;50211;52.768;12.124;2023-07-20T02:45:05;8.13;;;5.97;;
64011;SDS011;50211;52.768;12.124;2023-07-20T02:47:31;7.75;;;5.72;;
64011;SDS011;50211;52.768;12.124;2023-07-20T02:49:57;9.65;;;6.28;;
64011;SDS011;50211;52.768;12.124;2023-07-20T02:52:22;8.50;;;5.63;;
64011;SDS011;50211;52.768;12.124;2023-07-20T02:54:49;10.80;;;6.13;;
64011;SDS011;50211;52.768;12.124;2023-07-20T02:57:14;10.27;;;6.05;;
64011;SDS011;50211;52.768;12.124;2023-07-20T02:59:40;7.70;;;5.03;;
64011;SDS011;50211;52.768;12.124;2023-07-20T03:02:05;6.20;;;5.38;;
64011;SDS011;50211;52.768;12.124;2023-07-20T03:04:34;9.65;;;5.60;;
64011;SDS011;50211;52.768;12.124;2023-07-20T03:07:01;9.85;;;5.70;;
64011;SDS011;50211;52.768;12.124;2023-07-20T03:09:28;7.80;;;5.72;;
64011;SDS011;50211;52.768;12.124;2023-07-20T03:11:54;6.20;;;5.13;;
64011;SDS011;50211;52.768;12.124;2023-07-20T03:14:19;7.18;;;5.25;;
64011;SDS011;50211;52.768;12.124;2023-07-20T03:16:45;8.32;;;5.53;;
64011;SDS011;50211;52.768;12.124;2023-07-20T03:19:10;8.90;;;5.82;;
64011;SDS011;50211;52.768;12.124;2023-07-20T03:21:36;8.27;;;5.22;;
64011;SDS011;50211;52.768;12.124;2023-07-20T03:24:05;8.60;;;5.55;;
64011;SDS011;50211;52.768;12.124;2023-07-20T03:26:34;6.53;;;4.65;;
64011;SDS011;50211;52.768;12.124;2023-07-20T03:29:01;6.68;;;5.15;;
64011;SDS011;50211;52.768;12.124;2023-07-20T03:31:27;8.48;;;4.95;;
64011;SDS011;50211;52.768;12.124;2023-07-20T03:33:53;7.88;;;5.05;;
64011;SDS011;50211;52.768;12.124;2023-07-20T03:36:18;7.55;;;4.90;;
64011;SDS011;50211;52.768;12.124;2023-07-20T03:38:44;5.88;;;4.80;;
64011;SDS011;50211;52.768;12.124;2023-07-20T03:41:10;5.25;;;4.72;;
64011;SDS011;50211;52.768;12.124;2023-07-20T03:43:36;8.68;;;5.13;;
64011;SDS011;50211;52.768;12.124;2023-07-20T03:46:02;6.10;;;4.30;;
64011;SDS011;50211;52.768;12.124;2023-07-20T03:48:31;5.88;;;4.22;;
64011;SDS011;50211;52.768;12.124;2023-07-20T03:50:57;9.27;;;5.25;;
64011;SDS011;50211;52.768;12.124;2023-07-20T03:53:23;12.93;;;5.05;;
64011;SDS011;50211;52.768;12.124;2023-07-20T03:55:49;5.10;;;4.28;;
64011;SDS011;50211;52.768;12.124;2023-07-20T03:58:16;6.60;;;5.05;;
64011;SDS011;50211;52.768;12.124;2023-07-20T04:00:46;8.95;;;4.22;;
64011;SDS011;50211;52.768;12.124;2023-07-20T04:03:13;7.80;;;4.78;;
64011;SDS011;50211;52.768;12.124;2023-07-20T04:05:39;8.57;;;5.18;;
64011;SDS011;50211;52.768;12.124;2023-07-20T04:08:04;5.28;;;4.47;;
64011;SDS011;50211;52.768;12.124;2023-07-20T04:10:30;5.18;;;3.90;;
64011;SDS011;50211;52.768;12.124;2023-07-20T04:12:55;4.38;;;3.95;;
64011;SDS011;50211;52.768;12.124;2023-07-20T04:15:21;6.65;;;4.53;;
64011;SDS011;50211;52.768;12.124;2023-07-20T04:17:46;4.85;;;4.30;;
64011;SDS011;50211;52.768;12.124;2023-07-20T04:20:12;7.30;;;4.30;;
64011;SDS011;50211;52.768;12.124;2023-07-20T04:22:38;7.55;;;4.25;;
64011;SDS011;50211;52.768;12.124;2023-07-20T04:25:03;5.55;;;4.53;;
64011;SDS011;50211;52.768;12.124;2023-07-20T04:27:29;6.82;;;3.80;;
64011;SDS011;50211;52.768;12.124;2023-07-20T04:29:55;6.03;;;4.40;;
64011;SDS011;50211;52.768;12.124;2023-07-20T04:32:22;6.30;;;3.67;;
64011;SDS011;50211;52.768;12.124;2023-07-20T04:34:48;7.50;;;4.30;;
64011;SDS011;50211;52.768;12.124;2023-07-20T04:37:13;7.68;;;4.10;;
64011;SDS011;50211;52.768;12.124;2023-07-20T04:39:39;5.03;;;4.25;;
64011;SDS011;50211;52.768;12.124;2023-07-20T04:42:04;4.80;;;3.92;;
64011;SDS011;50211;52.768;12.124;2023-07-20T04:44:30;6.93;;;4.28;;
64011;SDS011;50211;52.768;12.124;2023-07-20T04:46:55;5.68;;;4.57;;
64011;SDS011;50211;52.768;12.124;2023-07-20T04:49:21;6.35;;;4.18;;
64011;SDS011;50211;52.768;12.124;2023-07-20T04:51:46;13.35;;;5.15;;
64011;SDS011;50211;52.768;12.124;2023-07-20T04:54:12;6.13;;;4.20;;
64011;SDS011;50211;52.768;12.124;2023-07-20T04:56:38;7.15;;;4.32;;
64011;SDS011;50211;52.768;12.124;2023-07-20T04:59:04;5.00;;;4.50;;
64011;SDS011;50211;52.768;12.124;2023-07-20T05:01:29;7.55;;;4.65;;
64011;SDS011;50211;52.768;12.124;2023-07-20T05:03:55;10.38;;;4.50;;
64011;SDS011;50211;52.768;12.124;2023-07-20T05:06:20;5.45;;;4.10;;
64011;SDS011;50211;52.768;12.124;2023-07-20T05:08:46;6.70;;;4.25;;
64011;SDS011;50211;52.768;12.124;2023-07-20T05:11:11;5.28;;;3.75;;
64011;SDS011;50211;52.768;12.124;2023-07-20T05:13:37;5.07;;;3.45;;
64011;SDS011;50211;52.768;12.124;2023-07-20T05:16:03;3.58;;;3.25;;
64011;SDS011;50211;52.768;12.124;2023-07-20T05:18:29;5.68;;;4.03;;
64011;SDS011;50211;52.768;12.124;2023-07-20T05:20:54;6.50;;;3.42;;
64011;SDS011;50211;52.768;12.124;2023-07-20T05:23:20;7.95;;;3.50;;
64011;SDS011;50211;52.768;12.124;2023-07-20T05:25:46;4.60;;;3.67;;
64011;SDS011;50211;52.768;12.124;2023-07-20T05:28:12;7.07;;;3.03;;
64011;SDS011;50211;52.768;12.124;2023-07-20T05:30:37;6.20;;;3.03;;
64011;SDS011;50211;52.768;12.124;2023-07-20T05:33:02;3.63;;;3.05;;
64011;SDS011;50211;52.768;12.124;2023-07-20T05:35:28;6.55;;;3.40;;
64011;SDS011;50211;52.768;12.124;2023-07-20T05:37:54;4.57;;;2.90;;
64011;SDS011;50211;52.768;12.124;2023-07-20T05:40:20;3.70;;;2.63;;
64011;SDS011;50211;52.768;12.124;2023-07-20T05:42:46;3.97;;;3.08;;
64011;SDS011;50211;52.768;12.124;2023-07-20T05:45:14;3.45;;;2.85;;
64011;SDS011;50211;52.768;12.124;2023-07-20T05:47:40;2.97;;;2.53;;
64011;SDS011;50211;52.768;12.124;2023-07-20T05:50:06;5.10;;;2.58;;
64011;SDS011;50211;52.768;12.124;2023-07-20T05:52:32;4.32;;;3.17;;
64011;SDS011;50211;52.768;12.124;2023-07-20T05:54:58;3.40;;;3.00;;
64011;SDS011;50211;52.768;12.124;2023-07-20T05:57:23;4.80;;;3.30;;
64011;SDS011;50211;52.768;12.124;2023-07-20T05:59:49;3.05;;;2.63;;
64011;SDS011;50211;52.768;12.124;2023-07-20T06:02:15;2.97;;;2.67;;
64011;SDS011;50211;52.768;12.124;2023-07-20T06:04:41;3.40;;;2.72;;
64011;SDS011;50211;52.768;12.124;2023-07-20T06:07:07;4.25;;;2.20;;
64011;SDS011;50211;52.768;12.124;2023-07-20T06:09:33;3.78;;;2.20;;
64011;SDS011;50211;52.768;12.124;2023-07-20T06:11:58;3.08;;;2.03;;
64011;SDS011;50211;52.768;12.124;2023-07-20T06:14:24;5.45;;;2.00;;
64011;SDS011;50211;52.768;12.124;2023-07-20T06:16:49;6.00;;;2.47;;
64011;SDS011;50211;52.768;12.124;2023-07-20T06:19:15;3.67;;;2.20;;
64011;SDS011;50211;52.768;12.124;2023-07-20T06:21:41;1.80;;;1.70;;
64011;SDS011;50211;52.768;12.124;2023-07-20T06:24:07;2.38;;;1.52;;
64011;SDS011;50211;52.768;12.124;2023-07-20T06:26:32;1.35;;;1.25;;
64011;SDS011;50211;52.768;12.124;2023-07-20T06:29:03;2.42;;;1.42;;
64011;SDS011;50211;52.768;12.124;2023-07-20T06:31:31;1.38;;;1.27;;
64011;SDS011;50211;52.768;12.124;2023-07-20T06:33:56;4.28;;;1.30;;
64011;SDS011;50211;52.768;12.124;2023-07-20T06:36:22;1.48;;;1.25;;
64011;SDS011;50211;52.768;12.124;2023-07-20T06:38:47;1.33;;;1.20;;
64011;SDS011;50211;52.768;12.124;2023-07-20T06:41:13;1.42;;;0.98;;
64011;SDS011;50211;52.768;12.124;2023-07-20T06:43:38;1.35;;;1.05;;
64011;SDS011;50211;52.768;12.124;2023-07-20T06:46:04;2.30;;;1.27;;
64011;SDS011;50211;52.768;12.124;2023-07-20T06:48:29;3.13;;;1.30;;
64011;SDS011;50211;52.768;12.124;2023-07-20T06:50:55;3.95;;;1.30;;
64011;SDS011;50211;52.768;12.124;2023-07-20T06:53:20;0.95;;;0.93;;
64011;SDS011;50211;52.768;12.124;2023-07-20T06:55:46;2.35;;;1.27;;
64011;SDS011;50211;52.768;12.124;2023-07-20T06:58:12;1.27;;;1.15;;
64011;SDS011;50211;52.768;12.124;2023-07-20T07:00:38;1.15;;;1.05;;
64011;SDS011;50211;52.768;12.124;2023-07-20T07:03:03;1.00;;;0.90;;
64011;SDS011;50211;52.768;12.124;2023-07-20T07:05:29;0.80;;;0.80;;
64011;SDS011;50211;52.768;12.124;2023-07-20T07:07:54;0.70;;;0.70;;
64011;SDS011;50211;52.768;12.124;2023-07-20T07:10:19;0.70;;;0.70;;
64011;SDS011;50211;52.768;12.124;2023-07-20T07:12:45;0.93;;;0.70;;
64011;SDS011;50211;52.768;12.124;2023-07-20T07:15:11;2.53;;;0.80;;
64011;SDS011;50211;52.768;12.124;2023-07-20T07:17:36;0.73;;;0.73;;
64011;SDS011;50211;52.768;12.124;2023-07-20T07:20:02;0.70;;;0.70;;
64011;SDS011;50211;52.768;12.124;2023-07-20T07:22:28;1.08;;;0.90;;
64011;SDS011;50211;52.768;12.124;2023-07-20T07:24:54;0.60;;;0.60;;
64011;SDS011;50211;52.768;12.124;2023-07-20T07:27:20;1.55;;;0.80;;
64011;SDS011;50211;52.768;12.124;2023-07-20T07:29:45;1.45;;;0.70;;
64011;SDS011;50211;52.768;12.124;2023-07-20T07:32:11;0.70;;;0.70;;
64011;SDS011;50211;52.768;12.124;2023-07-20T07:34:37;0.68;;;0.63;;
64011;SDS011;50211;52.768;12.124;2023-07-20T07:37:06;2.05;;;0.80;;
64011;SDS011;50211;52.768;12.124;2023-07-20T07:39:32;0.70;;;0.70;;
64011;SDS011;50211;52.768;12.124;2023-07-20T07:41:58;1.42;;;1.00;;
64011;SDS011;50211;52.768;12.124;2023-07-20T07:44:23;0.63;;;0.50;;
64011;SDS011;50211;52.768;12.124;2023-07-20T07:46:49;1.67;;;0.60;;
64011;SDS011;50211;52.768;12.124;2023-07-20T07:49:15;1.65;;;0.63;;
64011;SDS011;50211;52.768;12.124;2023-07-20T07:51:41;0.52;;;0.52;;
64011;SDS011;50211;52.768;12.124;2023-07-20T07:54:07;1.50;;;0.68;;
64011;SDS011;50211;52.768;12.124;2023-07-20T07:56:32;1.33;;;0.50;;
64011;SDS011;50211;52.768;12.124;2023-07-20T07:58:58;0.60;;;0.60;;
64011;SDS011;50211;52.768;12.124;2023-07-20T08:01:23;1.15;;;0.60;;
64011;SDS011;50211;52.768;12.124;2023-07-20T08:03:49;1.00;;;0.68;;
64011;SDS011;50211;52.768;12.124;2023-07-20T08:06:14;0.60;;;0.60;;
64011;SDS011;50211;52.768;12.124;2023-07-20T08:08:40;2.20;;;0.50;;
64011;SDS011;50211;52.768;12.124;2023-07-20T08:11:07;1.50;;;1.15;;
64011;SDS011;50211;52.768;12.124;2023-07-20T08:13:32;1.35;;;0.57;;
64011;SDS011;50211;52.768;12.124;2023-07-20T08:15:58;0.45;;;0.43;;
64011;SDS011;50211;52.768;12.124;2023-07-20T08:18:23;0.45;;;0.40;;
64011;SDS011;50211;52.768;12.124;2023-07-20T08:20:49;1.83;;;0.40;;
64011;SDS011;50211;52.768;12.124;2023-07-20T08:23:15;1.60;;;0.63;;
64011;SDS011;50211;52.768;12.124;2023-07-20T08:25:41;2.25;;;0.50;;
64011;SDS011;50211;52.768;12.124;2023-07-20T08:28:13;4.78;;;0.40;;
64011;SDS011;50211;52.768;12.124;2023-07-20T08:30:45;0.80;;;0.50;;
64011;SDS011;50211;52.768;12.124;2023-07-20T08:33:14;2.25;;;0.80;;
64011;SDS011;50211;52.768;12.124;2023-07-20T08:35:44;0.60;;;0.60;;
64011;SDS011;50211;52.768;12.124;2023-07-20T08:38:09;0.40;;;0.40;;
64011;SDS011;50211;52.768;12.124;2023-07-20T08:40:41;0.60;;;0.60;;
64011;SDS011;50211;52.768;12.124;2023-07-20T08:43:10;3.05;;;0.50;;
64011;SDS011;50211;52.768;12.124;2023-07-20T08:45:36;0.30;;;0.30;;
64011;SDS011;50211;52.768;12.124;2023-07-20T08:48:05;0.95;;;0.60;;
64011;SDS011;50211;52.768;12.124;2023-07-20T08:50:31;3.63;;;0.60;;
64011;SDS011;50211;52.768;12.124;2023-07-20T08:52:58;1.02;;;0.30;;
64011;SDS011;50211;52.768;12.124;2023-07-20T08:55:25;0.57;;;0.40;;
64011;SDS011;50211;52.768;12.124;2023-07-20T08:57:52;0.30;;;0.30;;
64011;SDS011;50211;52.768;12.124;2023-07-20T09:00:20;1.63;;;0.65;;
64011;SDS011;50211;52.768;12.124;2023-07-20T09:02:47;0.55;;;0.55;;
64011;SDS011;50211;52.768;12.124;2023-07-20T09:05:17;0.75;;;0.50;;
64011;SDS011;50211;52.768;12.124;2023-07-20T09:07:47;0.40;;;0.40;;
64011;SDS011;50211;52.768;12.124;2023-07-20T09:10:13;1.70;;;0.60;;
64011;SDS011;50211;52.768;12.124;2023-07-20T09:12:39;0.40;;;0.40;;
64011;SDS011;50211;52.768;12.124;2023-07-20T09:15:07;0.55;;;0.55;;
64011;SDS011;50211;52.768;12.124;2023-07-20T09:17:34;0.85;;;0.57;;
64011;SDS011;50211;52.768;12.124;2023-07-20T09:20:03;0.40;;;0.40;;
64011;SDS011;50211;52.768;12.124;2023-07-20T09:22:36;0.60;;;0.60;;
64011;SDS011;50211;52.768;12.124;2023-07-20T09:25:06;0.90;;;0.40;;
64011;SDS011;50211;52.768;12.124;2023-07-20T09:27:36;2.22;;;0.50;;
64011;SDS011;50211;52.768;12.124;2023-07-20T09:30:02;2.33;;;0.52;;
64011;SDS011;50211;52.768;12.124;2023-07-20T09:32:29;0.40;;;0.40;;
64011;SDS011;50211;52.768;12.124;2023-07-20T09:34:54;0.95;;;0.60;;
64011;SDS011;50211;52.768;12.124;2023-07-20T09:37:20;0.73;;;0.50;;
64011;SDS011;50211;52.768;12.124;2023-07-20T09:39:47;0.40;;;0.40;;
64011;SDS011;50211;52.768;12.124;2023-07-20T09:42:14;0.45;;;0.45;;
64011;SDS011;50211;52.768;12.124;2023-07-20T09:44:39;0.52;;;0.52;;
64011;SDS011;50211;52.768;12.124;2023-07-20T09:47:08;0.55;;;0.30;;
64011;SDS011;50211;52.768;12.124;2023-07-20T09:49:38;0.80;;;0.50;;
64011;SDS011;50211;52.768;12.124;2023-07-20T09:52:05;0.50;;;0.50;;
64011;SDS011;50211;52.768;12.124;2023-07-20T09:54:31;0.82;;;0.65;;
64011;SDS011;50211;52.768;12.124;2023-07-20T09:56:57;0.43;;;0.43;;
64011;SDS011;50211;52.768;12.124;2023-07-20T09:59:23;1.05;;;0.60;;
64011;SDS011;50211;52.768;12.124;2023-07-20T10:01:49;1.38;;;0.50;;
64011;SDS011;50211;52.768;12.124;2023-07-20T10:04:18;2.03;;;0.52;;
64011;SDS011;50211;52.768;12.124;2023-07-20T10:06:46;0.93;;;0.40;;
64011;SDS011;50211;52.768;12.124;2023-07-20T10:09:15;0.40;;;0.40;;
64011;SDS011;50211;52.768;12.124;2023-07-20T10:11:41;0.30;;;0.30;;
64011;SDS011;50211;52.768;12.124;2023-07-20T10:14:15;3.30;;;0.52;;
64011;SDS011;50211;52.768;12.124;2023-07-20T10:16:46;0.57;;;0.57;;
64011;SDS011;50211;52.768;12.124;2023-07-20T10:19:23;0.95;;;0.60;;
64011;SDS011;50211;52.768;12.124;2023-07-20T10:21:57;0.40;;;0.40;;
64011;SDS011;50211;52.768;12.124;2023-07-20T10:24:38;0.25;;;0.25;;
64011;SDS011;50211;52.768;12.124;2023-07-20T10:27:05;0.40;;;0.40;;
64011;SDS011;50211;52.768;12.124;2023-07-20T10:29:31;0.40;;;0.40;;
64011;SDS011;50211;52.768;12.124;2023-07-20T10:31:57;0.52;;;0.40;;
64011;SDS011;50211;52.768;12.124;2023-07-20T10:34:23;0.70;;;0.40;;
64011;SDS011;50211;52.768;12.124;2023-07-20T10:36:49;1.33;;;0.60;;
64011;SDS011;50211;52.768;12.124;2023-07-20T10:39:25;0.40;;;0.40;;
64011;SDS011;50211;52.768;12.124;2023-07-20T10:42:06;1.65;;;0.40;;
64011;SDS011;50211;52.768;12.124;2023-07-20T10:44:33;0.73;;;0.50;;
64011;SDS011;50211;52.768;12.124;2023-07-20T10:46:59;0.43;;;0.43;;
64011;SDS011;50211;52.768;12.124;2023-07-20T10:49:30;1.10;;;0.35;;
64011;SDS011;50211;52.768;12.124;2023-07-20T10:51:59;0.70;;;0.35;;
64011;SDS011;50211;52.768;12.124;2023-07-20T10:56:55;0.30;;;0.30;;
64011;SDS011;50211;52.768;12.124;2023-07-20T11:01:50;0.50;;;0.50;;
64011;SDS011;50211;52.768;12.124;2023-07-20T11:04:20;0.77;;;0.60;;
64011;SDS011;50211;52.768;12.124;2023-07-20T11:07:04;0.30;;;0.30;;
64011;SDS011;50211;52.768;12.124;2023-07-20T11:09:33;0.38;;;0.38;;
64011;SDS011;50211;52.768;12.124;2023-07-20T11:12:09;3.47;;;0.47;;
64011;SDS011;50211;52.768;12.124;2023-07-20T11:14:56;0.40;;;0.40;;
64011;SDS011;50211;52.768;12.124;2023-07-20T11:17:28;0.60;;;0.60;;
64011;SDS011;50211;52.768;12.124;2023-07-20T11:19:56;0.40;;;0.40;;
64011;SDS011;50211;52.768;12.124;2023-07-20T11:22:22;1.02;;;0.50;;
64011;SDS011;50211;52.768;12.124;2023-07-20T11:24:47;2.35;;;0.43;;
64011;SDS011;50211;52.768;12.124;2023-07-20T11:27:14;0.28;;;0.28;;
64011;SDS011;50211;52.768;12.124;2023-07-20T11:29:40;2.45;;;0.40;;
64011;SDS011;50211;52.768;12.124;2023-07-20T11:32:05;0.57;;;0.55;;
64011;SDS011;50211;52.768;12.124;2023-07-20T11:34:32;0.98;;;0.40;;
64011;SDS011;50211;52.768;12.124;2023-07-20T11:36:58;1.25;;;0.47;;
64011;SDS011;50211;52.768;12.124;2023-07-20T11:39:24;0.50;;;0.40;;
64011;SDS011;50211;52.768;12.124;2023-07-20T11:41:53;0.40;;;0.40;;
64011;SDS011;50211;52.768;12.124;2023-07-20T11:44:21;3.00;;;0.50;;
64011;SDS011;50211;52.768;12.124;2023-07-20T11:46:53;0.40;;;0.40;;
64011;SDS011;50211;52.768;12.124;2023-07-20T11:49:29;0.40;;;0.40;;
64011;SDS011;50211;52.768;12.124;2023-07-20T11:51:56;2.42;;;0.38;;
64011;SDS011;50211;52.768;12.124;2023-07-20T11:54:22;0.30;;;0.30;;
64011;SDS011;50211;52.768;12.124;2023-07-20T11:56:48;0.52;;;0.50;;
64011;SDS011;50211;52.768;12.124;2023-07-20T11:59:19;0.70;;;0.40;;
64011;SDS011;50211;52.768;12.124;2023-07-20T12:01:45;1.27;;;0.40;;
64011;SDS011;50211;52.768;12.124;2023-07-20T12:04:10;0.98;;;0.50;;
64011;SDS011;50211;52.768;12.124;2023-07-20T12:06:36;1.13;;;0.52;;
64011;SDS011;50211;52.768;12.124;2023-07-20T12:09:01;1.88;;;0.80;;
64011;SDS011;50211;52.768;12.124;2023-07-20T12:11:45;0.85;;;0.50;;
64011;SDS011;50211;52.768;12.124;2023-07-20T12:14:13;1.17;;;0.40;;
64011;SDS011;50211;52.768;12.124;2023-07-20T12:16:39;0.55;;;0.55;;
64011;SDS011;50211;52.768;12.124;2023-07-20T12:19:08;3.10;;;0.40;;
64011;SDS011;50211;52.768;12.124;2023-07-20T12:21:36;1.23;;;0.40;;
64011;SDS011;50211;52.768;12.124;2023-07-20T12:24:03;0.38;;;0.38;;
64011;SDS011;50211;52.768;12.124;2023-07-20T12:26:29;1.85;;;0.55;;
64011;SDS011;50211;52.768;12.124;2023-07-20T12:28:56;1.08;;;0.55;;
64011;SDS011;50211;52.768;12.124;2023-07-20T12:31:22;5.07;;;0.60;;
64011;SDS011;50211;52.768;12.124;2023-07-20T12:33:49;1.55;;;0.60;;
64011;SDS011;50211;52.768;12.124;2023-07-20T12:36:15;1.38;;;1.00;;
64011;SDS011;50211;52.768;12.124;2023-07-20T12:38:40;0.50;;;0.50;;
64011;SDS011;50211;52.768;12.124;2023-07-20T12:41:07;3.80;;;0.50;;
64011;SDS011;50211;52.768;12.124;2023-07-20T12:43:38;0.75;;;0.60;;
64011;SDS011;50211;52.768;12.124;2023-07-20T12:46:05;4.13;;;0.57;;
64011;SDS011;50211;52.768;12.124;2023-07-20T12:48:31;2.50;;;0.95;;
64011;SDS011;50211;52.768;12.124;2023-07-20T12:50:56;1.52;;;0.50;;
64011;SDS011;50211;52.768;12.124;2023-07-20T12:53:22;0.88;;;0.45;;
64011;SDS011;50211;52.768;12.124;2023-07-20T12:55:47;0.47;;;0.40;;
64011;SDS011;50211;52.768;12.124;2023-07-20T12:58:13;0.40;;;0.40;;
64011;SDS011;50211;52.768;12.124;2023-07-20T13:00:39;5.82;;;0.55;;
64011;SDS011;50211;52.768;12.124;2023-07-20T13:03:04;1.95;;;0.60;;
64011;SDS011;50211;52.768;12.124;2023-07-20T13:05:31;1.33;;;0.60;;
64011;SDS011;50211;52.768;12.124;2023-07-20T13:07:57;1.27;;;0.80;;
64011;SDS011;50211;52.768;12.124;2023-07-20T13:10:23;0.73;;;0.50;;
64011;SDS011;50211;52.768;12.124;2023-07-20T13:12:49;3.95;;;1.33;;
64011;SDS011;50211;52.768;12.124;2023-07-20T13:15:16;3.38;;;1.20;;
64011;SDS011;50211;52.768;12.124;2023-07-20T13:17:42;3.85;;;1.00;;
64011;SDS011;50211;52.768;12.124;2023-07-20T13:20:08;2.13;;;0.80;;
64011;SDS011;50211;52.768;12.124;2023-07-20T13:22:36;2.88;;;0.75;;
64011;SDS011;50211;52.768;12.124;2023-07-20T13:25:05;2.33;;;0.80;;
64011;SDS011;50211;52.768;12.124;2023-07-20T13:27:32;1.42;;;0.77;;
64011;SDS011;50211;52.768;12.124;2023-07-20T13:29:58;2.33;;;0.82;;
64011;SDS011;50211;52.768;12.124;2023-07-20T13:32:31;1.33;;;0.80;;
64011;SDS011;50211;52.768;12.124;2023-07-20T13:34:57;1.83;;;0.77;;
64011;SDS011;50211;52.768;12.124;2023-07-20T13:37:22;1.85;;;0.70;;
64011;SDS011;50211;52.768;12.124;2023-07-20T13:39:48;1.67;;;0.90;;
64011;SDS011;50211;52.768;12.124;2023-07-20T13:42:13;2.25;;;0.85;;
64011;SDS011;50211;52.768;12.124;2023-07-20T13:44:39;2.30;;;0.80;;
64011;SDS011;50211;52.768;12.124;2023-07-20T13:47:06;0.60;;;0.60;;
64011;SDS011;50211;52.768;12.124;2023-07-20T13:49:31;4.43;;;0.95;;
64011;SDS011;50211;52.768;12.124;2023-07-20T13:51:57;1.33;;;0.80;;
64011;SDS011;50211;52.768;12.124;2023-07-20T13:54:23;0.93;;;0.70;;
64011;SDS011;50211;52.768;12.124;2023-07-20T13:56:49;1.42;;;1.00;;
64011;SDS011;50211;52.768;12.124;2023-07-20T13:59:15;1.00;;;0.90;;
64011;SDS011;50211;52.768;12.124;2023-07-20T14:01:40;3.60;;;0.80;;
64011;SDS011;50211;52.768;12.124;2023-07-20T14:04:06;4.30;;;0.80;;
64011;SDS011;50211;52.768;12.124;2023-07-20T14:06:32;2.38;;;0.80;;
64011;SDS011;50211;52.768;12.124;2023-07-20T14:08:59;1.88;;;1.17;;
64011;SDS011;50211;52.768;12.124;2023-07-20T14:11:24;0.93;;;0.80;;
64011;SDS011;50211;52.768;12.124;2023-07-20T14:13:51;2.05;;;1.00;;
64011;SDS011;50211;52.768;12.124;2023-07-20T14:16:20;2.78;;;0.70;;
64011;SDS011;50211;52.768;12.124;2023-07-20T14:18:46;1.63;;;1.00;;
64011;SDS011;50211;52.768;12.124;2023-07-20T14:21:13;0.70;;;0.65;;
64011;SDS011;50211;52.768;12.124;2023-07-20T14:23:44;1.75;;;1.00;;
64011;SDS011;50211;52.768;12.124;2023-07-20T14:26:14;1.15;;;0.65;;
64011;SDS011;50211;52.768;12.124;2023-07-20T14:28:40;2.08;;;1.00;;
64011;SDS011;50211;52.768;12.124;2023-07-20T14:31:05;1.33;;;0.77;;
64011;SDS011;50211;52.768;12.124;2023-07-20T14:33:31;2.00;;;0.68;;
64011;SDS011;50211;52.768;12.124;2023-07-20T14:35:57;3.15;;;0.90;;
64011;SDS011;50211;52.768;12.124;2023-07-20T14:38:22;1.52;;;0.80;;
64011;SDS011;50211;52.768;12.124;2023-07-20T14:40:48;1.27;;;0.80;;